Goodland, Florida
Current Conditions -  °F | °C
As of 8:55 PM on Monday 24 Nov 2014 (Local Time) from KMKY Reporting Station
Clear Clear  
Wind Chill: 75°   Ceiling: Unl
Heat Index: 75°   Visibility: 10mi
Dew Point: 72°   Wind: 0mph
Humidity: 89%   Direction: NA
Pressure: 30.02"   Gusts: NA
Location:  25.92°N, 81.65°W
Report Text: KMKY 250155Z AUTO 00000KT 10SM CLR 24/22 A3002 RMK AO1
Loading
Personal Weather Stations






























Interactive Weather Map New forecast layout! Learn more

10-Day Weather Forecast

Advertisements
Track Severe Weather on mobile